createdAt,value
2017-09-20T00:02:29.863Z,80.44
2017-09-20T00:04:59.379Z,80.34
2017-09-20T00:07:28.717Z,80.05
2017-09-20T00:09:58.098Z,80.04
2017-09-20T00:12:28.882Z,80.45
2017-09-20T00:15:02.405Z,80.48
2017-09-20T00:17:35.351Z,80.43
2017-09-20T00:20:08.346Z,80.34
2017-09-20T00:22:39.163Z,80.11
2017-09-20T00:25:08.773Z,80.35
2017-09-20T00:27:38.892Z,80.29
2017-09-20T00:30:08.473Z,80.50
2017-09-20T00:32:37.157Z,80.32
2017-09-20T00:35:05.848Z,80.04
2017-09-20T00:37:34.537Z,79.92
2017-09-20T00:40:03.321Z,79.98
2017-09-20T00:42:32.982Z,79.83
2017-09-20T00:45:06.159Z,79.86
2017-09-20T00:47:49.465Z,79.87
2017-09-20T00:50:31.762Z,79.93
2017-09-20T00:53:15.639Z,79.89
2017-09-20T00:55:51.407Z,79.95
2017-09-20T00:58:23.199Z,80.25
2017-09-20T01:00:54.421Z,80.05
2017-09-20T01:03:25.393Z,79.96
2017-09-20T01:05:55.793Z,79.99
2017-09-20T01:08:26.716Z,80.08
2017-09-20T01:10:58.106Z,80.10
2017-09-20T01:13:29.336Z,80.10
2017-09-20T01:15:59.912Z,80.09
2017-09-20T01:18:30.805Z,80.13
2017-09-20T01:24:09.503Z,80.12
2017-09-20T01:26:40.484Z,80.09
2017-09-20T01:29:11.416Z,80.09
2017-09-20T01:31:42.773Z,80.17
2017-09-20T01:34:14.047Z,80.16
2017-09-20T01:36:47.117Z,80.16
2017-09-20T01:39:18.906Z,80.18
2017-09-20T01:41:49.829Z,80.12
2017-09-20T01:44:19.304Z,80.22
2017-09-20T01:46:48.037Z,80.27
2017-09-20T01:49:16.826Z,80.29
2017-09-20T01:51:45.569Z,80.33
2017-09-20T01:54:14.427Z,80.33
2017-09-20T01:56:43.135Z,80.35
2017-09-20T01:59:11.851Z,80.37
2017-09-20T02:01:40.568Z,80.60
2017-09-20T02:04:09.327Z,80.51
2017-09-20T02:06:38.013Z,80.53
2017-09-20T02:09:06.701Z,80.51
2017-09-20T02:11:35.430Z,80.47
2017-09-20T02:14:04.140Z,80.47
2017-09-20T02:16:32.887Z,80.97
2017-09-20T02:19:01.611Z,80.82
2017-09-20T02:21:30.319Z,80.68
2017-09-20T02:23:59.042Z,80.70
2017-09-20T02:26:27.772Z,80.67
2017-09-20T02:28:56.482Z,80.69
2017-09-20T02:31:25.155Z,80.63
2017-09-20T02:33:53.841Z,80.68
2017-09-20T02:36:22.252Z,80.94
2017-09-20T02:38:51.004Z,80.74
2017-09-20T02:41:19.693Z,80.78
2017-09-20T02:43:48.436Z,80.82
2017-09-20T02:46:17.150Z,80.89
2017-09-20T02:48:45.953Z,80.82
2017-09-20T02:51:14.769Z,80.74
2017-09-20T02:53:43.470Z,80.79
2017-09-20T02:56:12.202Z,80.86
2017-09-20T02:58:40.946Z,81.16
2017-09-20T03:01:09.702Z,80.99
2017-09-20T03:03:38.462Z,80.86
2017-09-20T03:06:07.151Z,81.22
2017-09-20T03:08:37.590Z,80.96
2017-09-20T03:11:06.353Z,81.32
2017-09-20T03:13:35.121Z,81.10
2017-09-20T03:16:03.806Z,81.37
2017-09-20T03:18:36.106Z,81.40
2017-09-20T03:21:04.775Z,81.46
2017-09-20T03:23:33.444Z,81.60
2017-09-20T03:26:02.174Z,81.54
2017-09-20T03:28:34.748Z,81.51
2017-09-20T03:31:03.512Z,81.51
2017-09-20T03:33:32.265Z,81.52
2017-09-20T03:36:00.940Z,81.68
2017-09-20T03:38:29.601Z,81.81
2017-09-20T03:40:58.312Z,81.73
2017-09-20T03:43:27.032Z,81.62
2017-09-20T03:45:55.874Z,81.55
2017-09-20T03:48:24.617Z,81.65
2017-09-20T03:50:53.325Z,81.76
2017-09-20T03:53:22.030Z,81.83
2017-09-20T03:55:50.740Z,82.01
2017-09-20T03:58:19.562Z,82.12
2017-09-20T04:00:48.283Z,82.03
2017-09-20T04:03:16.978Z,82.12
2017-09-20T04:05:45.750Z,82.39
2017-09-20T04:08:14.448Z,82.49
2017-09-20T04:10:43.228Z,82.40
2017-09-20T04:13:11.888Z,82.24
2017-09-20T04:15:40.596Z,82.26
2017-09-20T04:18:09.333Z,82.38
2017-09-20T04:20:38.143Z,82.34
2017-09-20T04:25:49.910Z,82.50
2017-09-20T04:28:33.824Z,82.30
2017-09-20T04:31:18.731Z,82.55
2017-09-20T04:34:00.220Z,82.50
2017-09-20T04:36:44.215Z,82.44
2017-09-20T04:39:28.782Z,82.59
2017-09-20T04:42:14.077Z,82.50
2017-09-20T04:44:58.983Z,82.79
2017-09-20T04:47:45.347Z,82.61
2017-09-20T04:50:32.008Z,82.69
2017-09-20T04:53:01.776Z,82.90
2017-09-20T04:55:35.557Z,82.66
2017-09-20T04:58:04.811Z,82.89
2017-09-20T05:00:33.563Z,82.70
2017-09-20T05:03:02.985Z,82.82
2017-09-20T05:05:33.472Z,82.69
2017-09-20T05:08:06.345Z,83.07
2017-09-20T05:10:41.084Z,83.03
2017-09-20T05:13:09.832Z,82.95
2017-09-20T05:15:38.591Z,82.85
2017-09-20T05:18:07.468Z,83.00
2017-09-20T05:20:39.797Z,82.87
2017-09-20T05:23:08.598Z,82.58
2017-09-20T05:25:37.377Z,82.62
2017-09-20T05:28:06.188Z,82.77
2017-09-20T05:30:34.789Z,82.71
2017-09-20T05:33:03.376Z,82.86
2017-09-20T05:35:32.024Z,83.00
2017-09-20T05:38:00.602Z,82.75
2017-09-20T05:40:29.309Z,82.98
2017-09-20T05:42:58.064Z,82.97
2017-09-20T05:45:26.782Z,83.06
2017-09-20T05:47:55.475Z,83.00
2017-09-20T05:50:24.192Z,83.05
2017-09-20T05:52:52.891Z,83.08
2017-09-20T05:55:21.690Z,82.99
2017-09-20T05:57:50.401Z,83.23
2017-09-20T06:00:19.191Z,83.24
2017-09-20T06:02:47.993Z,83.27
2017-09-20T06:05:16.813Z,83.15
2017-09-20T06:07:45.601Z,83.27
2017-09-20T06:10:14.366Z,83.50
2017-09-20T06:12:43.124Z,83.69
2017-09-20T06:15:11.961Z,83.68
2017-09-20T06:17:40.675Z,83.56
2017-09-20T06:20:09.376Z,83.56
2017-09-20T06:22:39.048Z,83.52
2017-09-20T06:25:07.839Z,83.51
2017-09-20T06:27:37.238Z,83.66
2017-09-20T06:30:05.971Z,83.73
2017-09-20T06:32:34.666Z,84.03
2017-09-20T06:35:03.439Z,83.61
2017-09-20T06:37:32.146Z,83.76
2017-09-20T06:40:00.938Z,83.93
2017-09-20T06:42:29.658Z,84.02
2017-09-20T06:44:58.406Z,84.13
2017-09-20T06:47:27.156Z,84.09
2017-09-20T06:49:55.742Z,83.91
2017-09-20T06:52:24.469Z,83.83
2017-09-20T06:54:53.237Z,84.05
2017-09-20T06:57:21.958Z,83.79
2017-09-20T06:59:50.699Z,83.83
2017-09-20T07:02:19.454Z,83.96
2017-09-20T07:04:48.233Z,83.86
2017-09-20T07:07:16.991Z,83.78
2017-09-20T07:09:45.752Z,83.53
2017-09-20T07:12:14.555Z,83.71
2017-09-20T07:14:45.653Z,83.73
2017-09-20T07:17:14.394Z,83.60
2017-09-20T07:19:43.147Z,83.72
2017-09-20T07:22:11.945Z,84.01
2017-09-20T07:24:40.726Z,83.96
2017-09-20T07:27:09.459Z,83.85
2017-09-20T07:29:38.171Z,83.89
2017-09-20T07:32:06.888Z,83.97
2017-09-20T07:34:35.646Z,84.11
2017-09-20T07:37:04.433Z,83.96
2017-09-20T07:39:33.242Z,84.42
2017-09-20T07:42:01.980Z,84.26
2017-09-20T07:44:30.698Z,84.29
2017-09-20T07:46:59.448Z,84.51
2017-09-20T07:49:28.238Z,84.39
2017-09-20T07:51:57.022Z,84.56
2017-09-20T07:54:25.781Z,84.62
2017-09-20T07:56:54.497Z,84.61
2017-09-20T07:59:23.259Z,84.62
2017-09-20T08:01:51.999Z,84.64
2017-09-20T08:04:20.744Z,84.41
2017-09-20T08:06:49.449Z,84.38
2017-09-20T08:09:18.268Z,84.31
2017-09-20T08:11:47.009Z,84.75
2017-09-20T08:14:15.900Z,84.63
2017-09-20T08:16:44.620Z,84.71
2017-09-20T08:19:13.394Z,84.55
2017-09-20T08:21:42.139Z,84.64
2017-09-20T08:24:10.842Z,84.67
2017-09-20T08:26:39.738Z,84.80
2017-09-20T08:29:08.469Z,84.75
2017-09-20T08:31:37.339Z,84.82
2017-09-20T08:34:06.088Z,84.95
2017-09-20T08:36:34.709Z,84.94
2017-09-20T08:39:03.335Z,85.00
2017-09-20T08:41:32.159Z,84.88
2017-09-20T08:44:00.873Z,84.70
2017-09-20T08:46:29.626Z,84.90
2017-09-20T08:48:58.369Z,84.80
2017-09-20T08:51:27.082Z,84.81
2017-09-20T08:53:55.897Z,84.80
2017-09-20T08:56:24.683Z,84.65
2017-09-20T08:58:53.521Z,84.76
2017-09-20T09:01:22.293Z,84.82
2017-09-20T09:03:51.008Z,84.81
2017-09-20T09:06:19.798Z,84.88
2017-09-20T09:08:48.551Z,84.60
2017-09-20T09:11:17.341Z,84.67
2017-09-20T09:13:45.924Z,84.62
2017-09-20T09:16:15.376Z,84.57
2017-09-20T09:18:44.158Z,84.51
2017-09-20T09:21:13.011Z,84.42
2017-09-20T09:23:41.926Z,84.21
2017-09-20T09:26:10.781Z,84.29
2017-09-20T09:28:39.868Z,84.20
2017-09-20T09:31:08.835Z,84.28
2017-09-20T09:33:37.770Z,84.17
2017-09-20T09:36:06.450Z,84.07
2017-09-20T09:38:36.939Z,83.95
2017-09-20T09:41:05.744Z,83.88
2017-09-20T09:43:34.426Z,83.77
2017-09-20T09:46:03.265Z,83.74
2017-09-20T09:48:35.177Z,83.71
2017-09-20T09:51:03.993Z,83.71
2017-09-20T09:53:32.792Z,83.64
2017-09-20T09:56:01.627Z,83.77
2017-09-20T09:58:35.910Z,83.69
2017-09-20T10:01:04.879Z,83.77
2017-09-20T10:03:34.385Z,83.64
2017-09-20T10:06:03.166Z,83.55
2017-09-20T10:08:35.055Z,83.64
2017-09-20T10:11:03.811Z,83.47
2017-09-20T10:13:32.829Z,83.46
2017-09-20T10:16:02.547Z,83.40
2017-09-20T10:18:34.245Z,83.45
2017-09-20T10:21:03.088Z,83.41
2017-09-20T10:23:31.841Z,83.44
2017-09-20T10:26:00.652Z,83.51
2017-09-20T10:28:29.427Z,83.47
2017-09-20T10:30:58.261Z,83.42
2017-09-20T10:33:27.122Z,83.35
2017-09-20T10:35:55.917Z,83.35
2017-09-20T10:38:24.793Z,83.34
2017-09-20T10:40:53.786Z,83.28
2017-09-20T10:43:22.542Z,83.33
2017-09-20T10:45:51.381Z,83.27
2017-09-20T10:48:20.330Z,83.25
2017-09-20T10:50:49.159Z,83.20
2017-09-20T10:53:18.128Z,83.03
2017-09-20T10:55:47.017Z,83.01
2017-09-20T10:58:15.913Z,82.97
2017-09-20T11:00:44.688Z,83.00
2017-09-20T11:03:13.409Z,83.01
2017-09-20T11:05:42.179Z,82.82
2017-09-20T11:08:10.909Z,82.75
2017-09-20T11:10:39.673Z,82.67
2017-09-20T11:13:08.409Z,82.76
2017-09-20T11:15:37.137Z,82.68
2017-09-20T11:18:05.908Z,82.71
2017-09-20T11:20:34.752Z,82.71
2017-09-20T11:23:03.631Z,82.77
2017-09-20T11:25:32.375Z,82.82
2017-09-20T11:28:01.130Z,82.67
2017-09-20T11:30:29.961Z,82.67
2017-09-20T11:32:58.767Z,82.70
2017-09-20T11:35:27.664Z,82.68
2017-09-20T11:37:56.427Z,82.57
2017-09-20T11:40:25.213Z,82.63
2017-09-20T11:42:53.930Z,82.52
2017-09-20T11:45:22.819Z,82.57
2017-09-20T11:47:51.566Z,82.50
2017-09-20T11:50:20.397Z,82.51
2017-09-20T11:52:49.158Z,82.54
2017-09-20T11:55:17.952Z,82.51
2017-09-20T11:57:46.745Z,82.51
2017-09-20T12:00:15.514Z,82.51
2017-09-20T12:02:44.225Z,82.37
2017-09-20T12:05:13.060Z,82.35
2017-09-20T12:07:41.793Z,82.33
2017-09-20T12:10:10.520Z,82.20
2017-09-20T12:12:39.343Z,82.16
2017-09-20T12:15:08.153Z,82.25
2017-09-20T12:17:36.931Z,82.25
2017-09-20T12:20:05.691Z,82.23
2017-09-20T12:22:34.436Z,82.19
2017-09-20T12:25:03.169Z,82.20
2017-09-20T12:27:31.857Z,82.17
2017-09-20T12:30:00.621Z,82.15
2017-09-20T12:32:29.315Z,82.06
2017-09-20T12:34:58.032Z,81.96
2017-09-20T12:37:26.775Z,82.04
2017-09-20T12:39:55.610Z,82.04
2017-09-20T12:42:24.413Z,82.01
2017-09-20T12:44:53.145Z,82.05
2017-09-20T12:47:21.890Z,82.07
2017-09-20T12:49:50.618Z,81.99
2017-09-20T12:52:19.391Z,82.02
2017-09-20T12:54:48.122Z,82.06
2017-09-20T12:57:16.890Z,82.14
2017-09-20T12:59:45.634Z,82.07
2017-09-20T13:02:14.425Z,82.10
2017-09-20T13:04:43.126Z,82.06
2017-09-20T13:07:11.865Z,81.99
2017-09-20T13:09:40.580Z,81.95
2017-09-20T13:12:09.354Z,81.85
2017-09-20T13:14:38.099Z,81.83
2017-09-20T13:17:06.832Z,81.86
2017-09-20T13:19:35.611Z,81.73
2017-09-20T13:22:04.353Z,81.78
2017-09-20T13:24:33.128Z,81.85
2017-09-20T13:27:01.875Z,81.83
2017-09-20T13:29:30.641Z,81.71
2017-09-20T13:31:59.413Z,81.58
2017-09-20T13:34:28.216Z,81.75
2017-09-20T13:36:56.947Z,81.60
2017-09-20T13:39:25.623Z,81.43
2017-09-20T13:41:54.368Z,81.56
2017-09-20T13:44:23.118Z,81.50
2017-09-20T13:46:51.849Z,81.42
2017-09-20T13:49:20.532Z,81.36
2017-09-20T13:51:49.290Z,81.23
2017-09-20T13:54:18.022Z,81.25
2017-09-20T13:56:46.869Z,81.17
2017-09-20T13:59:15.596Z,81.18
2017-09-20T14:01:44.253Z,81.11
2017-09-20T14:04:12.946Z,81.14
2017-09-20T14:06:41.763Z,80.87
2017-09-20T14:09:10.469Z,81.12
2017-09-20T14:11:39.150Z,80.64
2017-09-20T14:14:07.934Z,80.94
2017-09-20T14:16:36.685Z,80.99
2017-09-20T14:19:05.512Z,81.03
2017-09-20T14:21:34.267Z,80.88
2017-09-20T14:24:03.005Z,80.80
2017-09-20T14:26:31.787Z,80.70
2017-09-20T14:29:00.541Z,81.02
2017-09-20T14:31:29.250Z,80.81
2017-09-20T14:33:58.090Z,80.83
2017-09-20T14:36:26.822Z,80.97
2017-09-20T14:38:55.611Z,80.83
2017-09-20T14:41:24.364Z,80.74
2017-09-20T14:43:53.051Z,80.61
2017-09-20T14:46:21.796Z,80.22
2017-09-20T14:48:50.506Z,80.43
2017-09-20T14:51:19.233Z,80.68
2017-09-20T14:53:47.926Z,80.51
2017-09-20T14:56:16.748Z,80.82
2017-09-20T14:58:45.469Z,80.62
2017-09-20T15:01:14.158Z,80.79
2017-09-20T15:03:42.937Z,80.89
2017-09-20T15:06:11.711Z,80.95
2017-09-20T15:08:40.527Z,80.69
2017-09-20T15:11:09.303Z,80.75
2017-09-20T15:13:38.079Z,80.98
2017-09-20T15:16:06.794Z,81.17
2017-09-20T15:18:38.070Z,81.28
2017-09-20T15:21:06.777Z,81.21
2017-09-20T15:23:35.515Z,81.50
2017-09-20T15:26:04.200Z,81.49
2017-09-20T15:28:36.483Z,81.50
2017-09-20T15:31:05.304Z,81.54
2017-09-20T15:33:34.043Z,81.50
2017-09-20T15:36:09.031Z,81.52
2017-09-20T15:38:52.721Z,81.67
2017-09-20T15:41:24.638Z,81.59
2017-09-20T15:43:54.028Z,81.63
2017-09-20T15:46:31.411Z,81.67
2017-09-20T15:49:07.706Z,81.69
2017-09-20T15:51:43.937Z,81.65
2017-09-20T15:54:23.337Z,81.68
2017-09-20T15:56:58.947Z,81.78
2017-09-20T15:59:32.994Z,81.68
2017-09-20T16:02:04.714Z,81.71
2017-09-20T16:04:40.534Z,81.81
2017-09-20T16:07:15.555Z,81.79
2017-09-20T16:09:47.942Z,81.78
2017-09-20T16:12:23.199Z,81.87
2017-09-20T16:15:01.752Z,81.85
2017-09-20T16:17:41.053Z,81.93
2017-09-20T16:20:16.144Z,81.99
2017-09-20T16:22:55.550Z,82.01
2017-09-20T16:25:31.069Z,81.85
2017-09-20T16:28:07.292Z,82.04
2017-09-20T16:30:46.479Z,82.17
2017-09-20T16:33:24.637Z,82.21
2017-09-20T16:36:04.883Z,82.39
2017-09-20T16:38:39.819Z,82.37
2017-09-20T16:41:12.261Z,82.40
2017-09-20T16:43:46.202Z,82.40
2017-09-20T16:46:16.669Z,82.44
2017-09-20T16:48:56.891Z,82.44
2017-09-20T16:51:26.332Z,82.58
2017-09-20T16:54:00.997Z,82.59
2017-09-20T16:56:32.215Z,82.69
2017-09-20T16:59:04.392Z,82.64
2017-09-20T17:01:41.288Z,82.70
2017-09-20T17:04:14.009Z,82.66
2017-09-20T17:06:52.620Z,82.64
2017-09-20T17:09:33.789Z,82.71
2017-09-20T17:12:10.626Z,82.74
2017-09-20T17:14:49.986Z,82.74
2017-09-20T17:17:24.523Z,82.78
2017-09-20T17:20:04.640Z,82.79
2017-09-20T17:22:42.003Z,82.85
2017-09-20T17:25:18.544Z,82.86
2017-09-20T17:27:57.881Z,82.92
2017-09-20T17:30:32.910Z,82.82
2017-09-20T17:33:12.137Z,82.79
2017-09-20T17:35:55.946Z,82.82
2017-09-20T17:38:36.328Z,82.85
2017-09-20T17:41:13.586Z,82.79
2017-09-20T17:43:53.126Z,82.79
2017-09-20T17:46:32.460Z,82.69
2017-09-20T17:49:12.377Z,82.73
2017-09-20T17:51:51.117Z,82.71
2017-09-20T17:54:29.102Z,82.71
2017-09-20T17:57:10.998Z,82.55
2017-09-20T17:59:46.694Z,82.32
2017-09-20T18:02:20.688Z,82.41
2017-09-20T18:04:57.915Z,82.22
2017-09-20T18:07:35.002Z,81.96
2017-09-20T18:10:07.805Z,81.65
2017-09-20T18:12:46.563Z,81.43
2017-09-20T18:15:23.881Z,81.34
2017-09-20T18:18:02.673Z,81.28
2017-09-20T18:20:41.610Z,81.24
2017-09-20T18:23:24.415Z,81.13
2017-09-20T18:26:05.947Z,81.10
2017-09-20T18:28:44.450Z,81.04
2017-09-20T18:31:26.486Z,81.00
2017-09-20T18:33:55.604Z,80.98
2017-09-20T18:36:24.456Z,81.00
2017-09-20T18:38:53.198Z,80.94
2017-09-20T18:41:21.913Z,80.94
2017-09-20T18:43:50.743Z,80.87
2017-09-20T18:46:19.472Z,80.89
2017-09-20T18:49:02.700Z,80.82
2017-09-20T18:51:36.207Z,80.84
2017-09-20T18:54:11.288Z,80.82
2017-09-20T18:56:44.867Z,80.78
2017-09-20T18:59:20.130Z,80.79
2017-09-20T19:01:52.589Z,80.81
2017-09-20T19:04:30.532Z,80.72
2017-09-20T19:07:07.010Z,80.76
2017-09-20T19:09:40.133Z,80.73
2017-09-20T19:12:21.332Z,80.75
2017-09-20T19:14:56.652Z,80.76
2017-09-20T19:17:29.633Z,80.78
2017-09-20T19:20:05.170Z,80.75
2017-09-20T19:22:35.689Z,80.75
2017-09-20T19:25:07.862Z,80.77
2017-09-20T19:27:50.846Z,80.75
2017-09-20T19:30:24.577Z,80.77
2017-09-20T19:32:55.357Z,80.79
2017-09-20T19:35:24.931Z,80.81
2017-09-20T19:37:55.673Z,80.79
2017-09-20T19:40:26.323Z,80.84
2017-09-20T19:43:00.040Z,80.84
2017-09-20T19:45:38.425Z,80.89
2017-09-20T19:48:10.506Z,80.82
2017-09-20T19:50:42.846Z,80.84
2017-09-20T19:53:17.573Z,80.79
2017-09-20T19:55:53.250Z,80.81
2017-09-20T19:58:29.837Z,80.84
2017-09-20T20:01:00.456Z,80.85
2017-09-20T20:03:33.526Z,80.81
2017-09-20T20:06:12.592Z,80.87
2017-09-20T20:08:42.290Z,80.89
2017-09-20T20:11:11.027Z,80.94
2017-09-20T20:13:39.751Z,80.91
2017-09-20T20:16:09.492Z,80.93
2017-09-20T20:18:40.041Z,80.91
2017-09-20T20:21:09.000Z,80.89
2017-09-20T20:23:37.703Z,80.80
2017-09-20T20:26:06.503Z,80.90
2017-09-20T20:28:36.793Z,80.90
2017-09-20T20:31:05.481Z,80.92
2017-09-20T20:33:34.319Z,80.87
2017-09-20T20:36:03.089Z,80.91
2017-09-20T20:38:35.857Z,80.88
2017-09-20T20:41:04.579Z,80.92
2017-09-20T20:43:33.344Z,80.90
2017-09-20T20:46:01.893Z,80.91
2017-09-20T20:48:30.943Z,80.91
2017-09-20T20:50:59.945Z,80.91
2017-09-20T20:53:28.580Z,80.90
2017-09-20T20:55:57.338Z,80.93
2017-09-20T20:58:25.820Z,80.94
2017-09-20T21:00:54.586Z,80.92
2017-09-20T21:03:23.303Z,80.89
2017-09-20T21:05:52.053Z,80.89
2017-09-20T21:08:20.832Z,80.89
2017-09-20T21:10:49.641Z,80.91
2017-09-20T21:13:18.402Z,80.91
2017-09-20T21:15:47.003Z,80.87
2017-09-20T21:18:15.748Z,80.90
2017-09-20T21:20:44.577Z,80.87
2017-09-20T21:23:13.322Z,80.89
2017-09-20T21:25:42.070Z,80.93
2017-09-20T21:28:10.878Z,80.90
2017-09-20T21:30:39.634Z,80.90
2017-09-20T21:33:08.377Z,80.93
2017-09-20T21:35:37.161Z,80.91
2017-09-20T21:38:05.946Z,80.86
2017-09-20T21:40:34.655Z,80.82
2017-09-20T21:43:03.389Z,80.84
2017-09-20T21:45:32.135Z,80.85
2017-09-20T21:48:00.891Z,80.90
2017-09-20T21:50:29.636Z,80.87
2017-09-20T21:52:58.394Z,80.86
2017-09-20T21:55:27.209Z,80.90
2017-09-20T21:57:55.956Z,80.88
2017-09-20T22:00:24.700Z,80.87
2017-09-20T22:02:53.384Z,80.89
2017-09-20T22:05:22.337Z,80.90
2017-09-20T22:07:51.052Z,80.92
2017-09-20T22:10:19.779Z,80.97
2017-09-20T22:13:02.296Z,80.97
2017-09-20T22:15:50.671Z,80.95
2017-09-20T22:18:38.542Z,80.96
2017-09-20T22:21:24.999Z,80.97
2017-09-20T22:24:11.216Z,80.96
2017-09-20T22:26:52.805Z,80.97
2017-09-20T22:29:29.317Z,80.96
2017-09-20T22:32:04.095Z,81.01
2017-09-20T22:34:33.443Z,81.01
2017-09-20T22:37:02.210Z,81.06
2017-09-20T22:39:31.170Z,81.04
2017-09-20T22:41:59.872Z,80.99
2017-09-20T22:44:28.670Z,81.07
2017-09-20T22:46:57.440Z,81.06
2017-09-20T22:49:26.224Z,81.07
2017-09-20T22:51:54.915Z,81.04
2017-09-20T22:54:23.632Z,81.08
2017-09-20T22:56:52.424Z,81.09
2017-09-20T22:59:21.147Z,81.11
2017-09-20T23:01:49.861Z,81.08
2017-09-20T23:04:18.563Z,81.07
2017-09-20T23:06:47.279Z,81.03
2017-09-20T23:09:16.102Z,81.11
2017-09-20T23:11:44.872Z,81.10
2017-09-20T23:14:13.625Z,81.07
2017-09-20T23:16:42.370Z,81.11
2017-09-20T23:19:11.081Z,81.16
2017-09-20T23:21:39.972Z,81.10
2017-09-20T23:24:08.590Z,81.07
2017-09-20T23:26:37.363Z,81.10
2017-09-20T23:29:06.108Z,81.10
2017-09-20T23:31:34.893Z,81.09
2017-09-20T23:34:03.606Z,81.13
2017-09-20T23:36:32.285Z,81.14
2017-09-20T23:39:01.093Z,81.14
2017-09-20T23:41:29.878Z,81.12
2017-09-20T23:43:58.681Z,81.10
2017-09-20T23:46:27.414Z,81.16
2017-09-20T23:48:56.211Z,81.14
2017-09-20T23:51:24.896Z,81.15
2017-09-20T23:53:53.705Z,81.18
2017-09-20T23:56:22.399Z,81.24
2017-09-20T23:58:51.205Z,81.17
